sensor_id;sensor_type;location;lat;lon;timestamp;pressure;altitude;pressure_sealevel;temperature;humidity
13420;BME280;6781;58.440;15.470;2023-12-29T00:01:40;102448.59;;;0.93;100.00
13420;BME280;6781;58.440;15.470;2023-12-29T00:04:06;102440.09;;;0.91;100.00
13420;BME280;6781;58.440;15.470;2023-12-29T00:06:33;102452.84;;;0.92;100.00
13420;BME280;6781;58.440;15.470;2023-12-29T00:09:00;102446.91;;;0.92;100.00
13420;BME280;6781;58.440;15.470;2023-12-29T00:11:27;102446.88;;;0.95;100.00
13420;BME280;6781;58.440;15.470;2023-12-29T00:13:55;102438.38;;;0.93;100.00
13420;BME280;6781;58.440;15.470;2023-12-29T00:16:22;102429.81;;;0.97;100.00
13420;BME280;6781;58.440;15.470;2023-12-29T00:18:49;102419.66;;;0.91;100.00
13420;BME280;6781;58.440;15.470;2023-12-29T00:21:15;102439.13;;;1.06;100.00
13420;BME280;6781;58.440;15.470;2023-12-29T00:23:42;102451.84;;;1.10;100.00
13420;BME280;6781;58.440;15.470;2023-12-29T00:26:09;102441.75;;;0.98;100.00
13420;BME280;6781;58.440;15.470;2023-12-29T00:28:36;102470.53;;;1.14;100.00
13420;BME280;6781;58.440;15.470;2023-12-29T00:31:07;102470.59;;;1.09;100.00
13420;BME280;6781;58.440;15.470;2023-12-29T00:33:34;102468.91;;;1.05;100.00
13420;BME280;6781;58.440;15.470;2023-12-29T00:36:01;102468.91;;;1.05;100.00
13420;BME280;6781;58.440;15.470;2023-12-29T00:38:28;102489.22;;;1.20;100.00
13420;BME280;6781;58.440;15.470;2023-12-29T00:40:55;102501.09;;;1.27;100.00
13420;BME280;6781;58.440;15.470;2023-12-29T00:43:22;102546.81;;;1.55;100.00
13420;BME280;6781;58.440;15.470;2023-12-29T00:45:49;102552.78;;;1.57;100.00
13420;BME280;6781;58.440;15.470;2023-12-29T00:48:17;102570.59;;;1.66;100.00
13420;BME280;6781;58.440;15.470;2023-12-29T00:50:44;102570.69;;;1.54;100.00
13420;BME280;6781;58.440;15.470;2023-12-29T00:53:11;102586.88;;;1.56;100.00
13420;BME280;6781;58.440;15.470;2023-12-29T00:55:38;102592.91;;;1.49;100.00
13420;BME280;6781;58.440;15.470;2023-12-29T00:58:04;102591.22;;;1.46;100.00
13420;BME280;6781;58.440;15.470;2023-12-29T01:00:31;102614.91;;;1.65;100.00
13420;BME280;6781;58.440;15.470;2023-12-29T01:02:58;102626.78;;;1.72;100.00
13420;BME280;6781;58.440;15.470;2023-12-29T01:05:26;102639.53;;;1.74;100.00
13420;BME280;6781;58.440;15.470;2023-12-29T01:07:54;102644.63;;;1.75;100.00
13420;BME280;6781;58.440;15.470;2023-12-29T01:10:20;102669.25;;;1.87;100.00
13420;BME280;6781;58.440;15.470;2023-12-29T01:12:47;102664.28;;;1.73;100.00
13420;BME280;6781;58.440;15.470;2023-12-29T01:15:14;102694.88;;;1.82;100.00
13420;BME280;6781;58.440;15.470;2023-12-29T01:17:43;102704.19;;;1.88;100.00
13420;BME280;6781;58.440;15.470;2023-12-29T01:20:09;102706.84;;;1.77;100.00
13420;BME280;6781;58.440;15.470;2023-12-29T01:22:38;102734.94;;;1.82;100.00
13420;BME280;6781;58.440;15.470;2023-12-29T01:25:05;102758.72;;;1.94;100.00
13420;BME280;6781;58.440;15.470;2023-12-29T01:27:32;102756.22;;;1.88;100.00
13420;BME280;6781;58.440;15.470;2023-12-29T01:29:59;102759.69;;;1.81;100.00
13420;BME280;6781;58.440;15.470;2023-12-29T01:32:26;102763.06;;;1.83;100.00
13420;BME280;6781;58.440;15.470;2023-12-29T01:34:53;102780.91;;;1.94;100.00
13420;BME280;6781;58.440;15.470;2023-12-29T01:37:20;102778.41;;;1.86;100.00
13420;BME280;6781;58.440;15.470;2023-12-29T01:39:48;102797.09;;;1.94;100.00
13420;BME280;6781;58.440;15.470;2023-12-29T01:42:15;102792.88;;;1.87;100.00
13420;BME280;6781;58.440;15.470;2023-12-29T01:44:41;102790.34;;;1.84;100.00
13420;BME280;6781;58.440;15.470;2023-12-29T01:47:10;102795.44;;;1.87;100.00
13420;BME280;6781;58.440;15.470;2023-12-29T01:49:38;102807.31;;;1.98;100.00
13420;BME280;6781;58.440;15.470;2023-12-29T01:52:05;102805.66;;;1.89;100.00
13420;BME280;6781;58.440;15.470;2023-12-29T01:54:33;102806.56;;;1.82;100.00
13420;BME280;6781;58.440;15.470;2023-12-29T01:57:02;102803.16;;;1.84;100.00
13420;BME280;6781;58.440;15.470;2023-12-29T01:59:29;102805.72;;;1.81;100.00
13420;BME280;6781;58.440;15.470;2023-12-29T02:01:56;102815.91;;;1.87;100.00
13420;BME280;6781;58.440;15.470;2023-12-29T02:04:23;102824.47;;;1.82;100.00
13420;BME280;6781;58.440;15.470;2023-12-29T02:06:50;102820.25;;;1.78;100.00
13420;BME280;6781;58.440;15.470;2023-12-29T02:09:18;102818.59;;;1.72;100.00
13420;BME280;6781;58.440;15.470;2023-12-29T02:11:45;102827.06;;;1.76;100.00
13420;BME280;6781;58.440;15.470;2023-12-29T02:14:13;102817.75;;;1.73;100.00
13420;BME280;6781;58.440;15.470;2023-12-29T02:16:42;102821.97;;;1.76;100.00
13420;BME280;6781;58.440;15.470;2023-12-29T02:19:13;102831.31;;;1.80;100.00
13420;BME280;6781;58.440;15.470;2023-12-29T02:21:43;102827.88;;;1.82;100.00
13420;BME280;6781;58.440;15.470;2023-12-29T02:24:10;102834.69;;;1.86;100.00
13420;BME280;6781;58.440;15.470;2023-12-29T02:26:38;102846.59;;;1.90;100.00
13420;BME280;6781;58.440;15.470;2023-12-29T02:29:08;102860.22;;;1.95;100.00
13420;BME280;6781;58.440;15.470;2023-12-29T02:31:37;102849.16;;;1.89;100.00
13420;BME280;6781;58.440;15.470;2023-12-29T02:34:04;102855.13;;;1.89;100.00
13420;BME280;6781;58.440;15.470;2023-12-29T02:36:34;102866.19;;;1.94;100.00
13420;BME280;6781;58.440;15.470;2023-12-29T02:39:07;102889.19;;;2.01;100.00
13420;BME280;6781;58.440;15.470;2023-12-29T02:41:35;102884.06;;;1.98;100.00
13420;BME280;6781;58.440;15.470;2023-12-29T02:44:03;102892.66;;;1.90;100.00
13420;BME280;6781;58.440;15.470;2023-12-29T02:46:30;102896.88;;;1.96;100.00
13420;BME280;6781;58.440;15.470;2023-12-29T02:48:57;102907.91;;;2.06;100.00
13420;BME280;6781;58.440;15.470;2023-12-29T02:51:24;102913.88;;;2.08;100.00
13420;BME280;6781;58.440;15.470;2023-12-29T02:53:51;102907.97;;;1.93;100.00
13420;BME280;6781;58.440;15.470;2023-12-29T02:56:18;102909.69;;;1.94;100.00
13420;BME280;6781;58.440;15.470;2023-12-29T02:58:44;102918.22;;;1.92;100.00
13420;BME280;6781;58.440;15.470;2023-12-29T03:01:14;102924.22;;;1.86;100.00
13420;BME280;6781;58.440;15.470;2023-12-29T03:06:16;102928.50;;;1.81;100.00
13420;BME280;6781;58.440;15.470;2023-12-29T03:08:43;102915.72;;;1.78;100.00
13420;BME280;6781;58.440;15.470;2023-12-29T03:11:10;102924.28;;;1.74;100.00
13420;BME280;6781;58.440;15.470;2023-12-29T03:13:36;102954.03;;;1.90;100.00
13420;BME280;6781;58.440;15.470;2023-12-29T03:16:03;102961.66;;;2.03;100.00
13420;BME280;6781;58.440;15.470;2023-12-29T03:18:32;102977.81;;;2.17;100.00
13420;BME280;6781;58.440;15.470;2023-12-29T03:21:03;102978.72;;;2.02;100.00
13420;BME280;6781;58.440;15.470;2023-12-29T03:23:31;102993.22;;;2.05;100.00
13420;BME280;6781;58.440;15.470;2023-12-29T03:25:58;103001.78;;;2.01;100.00
13420;BME280;6781;58.440;15.470;2023-12-29T03:28:25;103010.28;;;2.03;100.00
13420;BME280;6781;58.440;15.470;2023-12-29T03:30:51;103025.63;;;2.06;100.00
13420;BME280;6781;58.440;15.470;2023-12-29T03:33:18;103035.84;;;2.09;100.00
13420;BME280;6781;58.440;15.470;2023-12-29T03:35:46;103039.28;;;2.05;100.00
13420;BME280;6781;58.440;15.470;2023-12-29T03:38:13;103058.88;;;2.09;100.00
13420;BME280;6781;58.440;15.470;2023-12-29T03:40:40;103059.78;;;2.02;100.00
13420;BME280;6781;58.440;15.470;2023-12-29T03:43:07;103058.06;;;1.98;100.00
13420;BME280;6781;58.440;15.470;2023-12-29T03:45:34;103081.94;;;2.06;100.00
13420;BME280;6781;58.440;15.470;2023-12-29T03:48:01;103087.94;;;1.99;100.00
13420;BME280;6781;58.440;15.470;2023-12-29T03:50:27;103102.41;;;2.03;100.00
13420;BME280;6781;58.440;15.470;2023-12-29T03:52:55;103122.00;;;2.11;100.00
13420;BME280;6781;58.440;15.470;2023-12-29T03:55:22;103122.84;;;2.15;100.00
13420;BME280;6781;58.440;15.470;2023-12-29T03:57:49;103133.09;;;2.18;100.00
13420;BME280;6781;58.440;15.470;2023-12-29T04:00:16;103140.78;;;2.10;100.00
13420;BME280;6781;58.440;15.470;2023-12-29T04:02:43;103139.09;;;2.05;100.00
13420;BME280;6781;58.440;15.470;2023-12-29T04:05:09;103155.28;;;2.10;100.00
13420;BME280;6781;58.440;15.470;2023-12-29T04:07:36;103168.94;;;2.10;100.00
13420;BME280;6781;58.440;15.470;2023-12-29T04:10:07;103177.47;;;2.17;100.00
13420;BME280;6781;58.440;15.470;2023-12-29T04:12:34;103177.47;;;2.08;100.00
13420;BME280;6781;58.440;15.470;2023-12-29T04:15:01;103193.69;;;2.02;100.00
13420;BME280;6781;58.440;15.470;2023-12-29T04:17:28;103204.78;;;2.00;100.00
13420;BME280;6781;58.440;15.470;2023-12-29T04:19:55;103219.28;;;2.05;100.00
13420;BME280;6781;58.440;15.470;2023-12-29T04:22:22;103224.41;;;2.05;100.00
13420;BME280;6781;58.440;15.470;2023-12-29T04:24:49;103228.66;;;1.99;100.00
13420;BME280;6781;58.440;15.470;2023-12-29T04:27:17;103243.16;;;1.96;100.00
13420;BME280;6781;58.440;15.470;2023-12-29T04:29:44;103257.66;;;2.04;100.00
13420;BME280;6781;58.440;15.470;2023-12-29T04:32:11;103254.25;;;2.02;100.00
13420;BME280;6781;58.440;15.470;2023-12-29T04:34:38;103263.66;;;2.06;100.00
13420;BME280;6781;58.440;15.470;2023-12-29T04:37:04;103281.56;;;2.09;100.00
13420;BME280;6781;58.440;15.470;2023-12-29T04:39:31;103288.38;;;2.07;100.00
13420;BME280;6781;58.440;15.470;2023-12-29T04:41:58;103302.03;;;2.09;100.00
13420;BME280;6781;58.440;15.470;2023-12-29T04:44:26;103302.03;;;2.03;100.00
13420;BME280;6781;58.440;15.470;2023-12-29T04:46:53;103317.41;;;2.12;100.00
13420;BME280;6781;58.440;15.470;2023-12-29T04:49:20;103316.53;;;2.07;100.00
13420;BME280;6781;58.440;15.470;2023-12-29T04:51:47;103319.94;;;2.09;100.00
13420;BME280;6781;58.440;15.470;2023-12-29T04:54:14;103321.66;;;2.08;100.00
13420;BME280;6781;58.440;15.470;2023-12-29T04:56:41;103324.22;;;2.07;100.00
13420;BME280;6781;58.440;15.470;2023-12-29T04:59:09;103320.78;;;1.99;100.00
13420;BME280;6781;58.440;15.470;2023-12-29T05:01:37;103318.25;;;2.03;100.00
13420;BME280;6781;58.440;15.470;2023-12-29T05:04:04;103317.38;;;2.06;100.00
13420;BME280;6781;58.440;15.470;2023-12-29T05:06:30;103300.31;;;2.05;100.00
13420;BME280;6781;58.440;15.470;2023-12-29T05:08:57;103288.38;;;2.01;100.00
13420;BME280;6781;58.440;15.470;2023-12-29T05:11:24;103283.25;;;2.04;100.00
13420;BME280;6781;58.440;15.470;2023-12-29T05:13:51;103269.63;;;2.05;100.00
13420;BME280;6781;58.440;15.470;2023-12-29T05:16:22;103252.56;;;2.04;100.00
13420;BME280;6781;58.440;15.470;2023-12-29T05:18:50;103228.66;;;1.95;100.00
13420;BME280;6781;58.440;15.470;2023-12-29T05:21:17;103210.75;;;1.92;100.00
13420;BME280;6781;58.440;15.470;2023-12-29T05:23:46;103211.63;;;1.88;100.00
13420;BME280;6781;58.440;15.470;2023-12-29T05:26:14;103200.53;;;1.86;100.00
13420;BME280;6781;58.440;15.470;2023-12-29T05:28:40;103199.69;;;1.87;100.00
13420;BME280;6781;58.440;15.470;2023-12-29T05:31:07;103194.56;;;1.90;100.00
13420;BME280;6781;58.440;15.470;2023-12-29T05:33:34;103199.69;;;1.90;100.00
13420;BME280;6781;58.440;15.470;2023-12-29T05:36:07;103199.69;;;1.90;100.00
13420;BME280;6781;58.440;15.470;2023-12-29T05:38:34;103197.97;;;1.95;100.00
13420;BME280;6781;58.440;15.470;2023-12-29T05:41:01;103205.63;;;2.02;100.00
13420;BME280;6781;58.440;15.470;2023-12-29T05:43:30;103211.59;;;2.07;100.00
13420;BME280;6781;58.440;15.470;2023-12-29T05:45:57;103207.34;;;2.06;100.00
13420;BME280;6781;58.440;15.470;2023-12-29T05:48:23;103217.56;;;2.10;100.00
13420;BME280;6781;58.440;15.470;2023-12-29T05:50:50;103216.72;;;2.10;100.00
13420;BME280;6781;58.440;15.470;2023-12-29T05:53:19;103211.59;;;2.07;100.00
13420;BME280;6781;58.440;15.470;2023-12-29T05:55:45;103210.75;;;1.99;100.00
13420;BME280;6781;58.440;15.470;2023-12-29T05:58:12;103217.59;;;2.00;100.00
13420;BME280;6781;58.440;15.470;2023-12-29T06:00:39;103209.91;;;1.96;100.00
13420;BME280;6781;58.440;15.470;2023-12-29T06:03:06;103216.72;;;1.90;100.00
13420;BME280;6781;58.440;15.470;2023-12-29T06:05:32;103218.44;;;1.95;100.00
13420;BME280;6781;58.440;15.470;2023-12-29T06:07:59;103234.63;;;2.01;100.00
13420;BME280;6781;58.440;15.470;2023-12-29T06:10:27;103228.66;;;1.99;100.00
13420;BME280;6781;58.440;15.470;2023-12-29T06:12:54;103244.88;;;2.07;100.00
13420;BME280;6781;58.440;15.470;2023-12-29T06:15:21;103250.84;;;2.06;100.00
13420;BME280;6781;58.440;15.470;2023-12-29T06:17:48;103243.16;;;2.06;100.00
13420;BME280;6781;58.440;15.470;2023-12-29T06:20:15;103246.59;;;2.03;100.00
13420;BME280;6781;58.440;15.470;2023-12-29T06:22:41;103248.28;;;2.07;100.00
13420;BME280;6781;58.440;15.470;2023-12-29T06:25:09;103255.97;;;2.10;100.00
13420;BME280;6781;58.440;15.470;2023-12-29T06:27:38;103262.78;;;2.10;100.00
13420;BME280;6781;58.440;15.470;2023-12-29T06:30:06;103279.84;;;2.18;100.00
13420;BME280;6781;58.440;15.470;2023-12-29T06:32:33;103267.06;;;2.09;100.00
13420;BME280;6781;58.440;15.470;2023-12-29T06:35:00;103271.31;;;2.12;100.00
13420;BME280;6781;58.440;15.470;2023-12-29T06:37:28;103265.34;;;2.08;100.00
13420;BME280;6781;58.440;15.470;2023-12-29T06:39:55;103264.50;;;2.02;100.00
13420;BME280;6781;58.440;15.470;2023-12-29T06:42:21;103261.09;;;2.00;100.00
13420;BME280;6781;58.440;15.470;2023-12-29T06:44:51;103269.63;;;2.00;100.00
13420;BME280;6781;58.440;15.470;2023-12-29T06:47:17;103263.66;;;1.98;100.00
13420;BME280;6781;58.440;15.470;2023-12-29T06:49:44;103253.41;;;1.96;100.00
13420;BME280;6781;58.440;15.470;2023-12-29T06:52:11;103269.63;;;1.99;100.00
13420;BME280;6781;58.440;15.470;2023-12-29T06:54:38;103272.16;;;2.06;100.00
13420;BME280;6781;58.440;15.470;2023-12-29T06:57:05;103261.94;;;2.05;100.00
13420;BME280;6781;58.440;15.470;2023-12-29T06:59:31;103260.22;;;2.04;100.00
13420;BME280;6781;58.440;15.470;2023-12-29T07:02:00;103257.66;;;1.98;100.00
13420;BME280;6781;58.440;15.470;2023-12-29T07:04:26;103252.56;;;2.01;100.00
13420;BME280;6781;58.440;15.470;2023-12-29T07:06:53;103249.13;;;1.95;100.00
13420;BME280;6781;58.440;15.470;2023-12-29T07:09:20;103232.09;;;1.91;100.00
13420;BME280;6781;58.440;15.470;2023-12-29T07:11:47;103235.50;;;1.93;100.00
13420;BME280;6781;58.440;15.470;2023-12-29T07:14:15;103228.66;;;1.89;100.00
13420;BME280;6781;58.440;15.470;2023-12-29T07:16:42;103233.78;;;1.86;100.00
13420;BME280;6781;58.440;15.470;2023-12-29T07:19:10;103240.63;;;1.90;100.00
13420;BME280;6781;58.440;15.470;2023-12-29T07:21:37;103235.50;;;1.89;100.00
13420;BME280;6781;58.440;15.470;2023-12-29T07:24:04;103225.25;;;1.87;100.00
13420;BME280;6781;58.440;15.470;2023-12-29T07:26:32;103235.50;;;1.92;100.00
13420;BME280;6781;58.440;15.470;2023-12-29T07:28:59;103237.19;;;1.88;100.00
13420;BME280;6781;58.440;15.470;2023-12-29T07:31:25;103240.59;;;1.87;100.00
13420;BME280;6781;58.440;15.470;2023-12-29T07:33:52;103231.22;;;1.82;100.00
13420;BME280;6781;58.440;15.470;2023-12-29T07:36:21;103226.97;;;1.76;100.00
13420;BME280;6781;58.440;15.470;2023-12-29T07:38:48;103232.06;;;1.79;100.00
13420;BME280;6781;58.440;15.470;2023-12-29T07:41:14;103238.03;;;1.78;100.00
13420;BME280;6781;58.440;15.470;2023-12-29T07:43:41;103228.66;;;1.74;100.00
13420;BME280;6781;58.440;15.470;2023-12-29T07:46:08;103226.97;;;1.76;100.00
13420;BME280;6781;58.440;15.470;2023-12-29T07:48:36;103228.66;;;1.77;100.00
13420;BME280;6781;58.440;15.470;2023-12-29T07:51:04;103241.47;;;1.86;100.00
13420;BME280;6781;58.440;15.470;2023-12-29T07:53:33;103235.50;;;1.78;100.00
13420;BME280;6781;58.440;15.470;2023-12-29T07:55:59;103237.19;;;1.81;100.00
13420;BME280;6781;58.440;15.470;2023-12-29T07:58:27;103245.72;;;1.81;100.00
13420;BME280;6781;58.440;15.470;2023-12-29T08:00:54;103238.06;;;1.84;100.00
13420;BME280;6781;58.440;15.470;2023-12-29T08:03:21;103242.31;;;1.85;100.00
13420;BME280;6781;58.440;15.470;2023-12-29T08:05:48;103235.50;;;1.84;100.00
13420;BME280;6781;58.440;15.470;2023-12-29T08:08:14;103249.13;;;1.88;100.00
13420;BME280;6781;58.440;15.470;2023-12-29T08:10:42;103233.78;;;1.80;100.00
13420;BME280;6781;58.440;15.470;2023-12-29T08:13:09;103230.38;;;1.81;100.00
13420;BME280;6781;58.440;15.470;2023-12-29T08:15:36;103226.97;;;1.76;100.00
13420;BME280;6781;58.440;15.470;2023-12-29T08:18:03;103215.91;;;1.73;100.00
13420;BME280;6781;58.440;15.470;2023-12-29T08:20:30;103216.72;;;1.76;100.00
13420;BME280;6781;58.440;15.470;2023-12-29T08:22:56;103212.47;;;1.78;100.00
13420;BME280;6781;58.440;15.470;2023-12-29T08:25:23;103215.88;;;1.77;100.00
13420;BME280;6781;58.440;15.470;2023-12-29T08:27:51;103209.09;;;1.72;100.00
13420;BME280;6781;58.440;15.470;2023-12-29T08:30:18;103203.97;;;1.73;100.00
13420;BME280;6781;58.440;15.470;2023-12-29T08:32:45;103208.19;;;1.74;100.00
13420;BME280;6781;58.440;15.470;2023-12-29T08:35:12;103204.78;;;1.75;100.00
13420;BME280;6781;58.440;15.470;2023-12-29T08:37:38;103203.09;;;1.77;100.00
13420;BME280;6781;58.440;15.470;2023-12-29T08:40:06;103203.09;;;1.77;100.00
13420;BME280;6781;58.440;15.470;2023-12-29T08:42:33;103193.69;;;1.82;100.00
13420;BME280;6781;58.440;15.470;2023-12-29T08:45:01;103187.75;;;1.83;100.00
13420;BME280;6781;58.440;15.470;2023-12-29T08:47:29;103194.56;;;1.89;100.00
13420;BME280;6781;58.440;15.470;2023-12-29T08:49:55;103187.72;;;1.86;100.00
13420;BME280;6781;58.440;15.470;2023-12-29T08:52:22;103186.03;;;1.88;100.00
13420;BME280;6781;58.440;15.470;2023-12-29T08:54:49;103184.31;;;1.93;100.00
13420;BME280;6781;58.440;15.470;2023-12-29T08:57:16;103175.78;;;1.94;100.00
13420;BME280;6781;58.440;15.470;2023-12-29T08:59:44;103180.91;;;1.96;100.00
13420;BME280;6781;58.440;15.470;2023-12-29T09:05:08;103187.72;;;1.99;100.00
13420;BME280;6781;58.440;15.470;2023-12-29T09:07:35;103186.00;;;2.04;100.00
13420;BME280;6781;58.440;15.470;2023-12-29T09:10:02;103182.59;;;2.02;100.00
13420;BME280;6781;58.440;15.470;2023-12-29T09:12:50;103178.34;;;2.04;100.00
13420;BME280;6781;58.440;15.470;2023-12-29T09:15:17;103189.41;;;2.12;100.00
13420;BME280;6781;58.440;15.470;2023-12-29T09:17:44;103172.38;;;2.05;100.00
13420;BME280;6781;58.440;15.470;2023-12-29T09:23:12;103185.97;;;2.23;100.00
13420;BME280;6781;58.440;15.470;2023-12-29T09:25:39;103182.56;;;2.29;100.00
13420;BME280;6781;58.440;15.470;2023-12-29T09:28:06;103185.09;;;2.32;100.00
13420;BME280;6781;58.440;15.470;2023-12-29T09:30:33;103173.16;;;2.29;100.00
13420;BME280;6781;58.440;15.470;2023-12-29T09:33:00;103173.16;;;2.31;100.00
13420;BME280;6781;58.440;15.470;2023-12-29T09:35:27;103162.94;;;2.25;100.00
13420;BME280;6781;58.440;15.470;2023-12-29T09:37:53;103152.69;;;2.23;100.00
13420;BME280;6781;58.440;15.470;2023-12-29T09:43:17;103163.78;;;2.33;100.00
13420;BME280;6781;58.440;15.470;2023-12-29T09:45:45;103148.41;;;2.30;100.00
13420;BME280;6781;58.440;15.470;2023-12-29T09:48:15;103146.72;;;2.29;100.00
13420;BME280;6781;58.440;15.470;2023-12-29T09:50:44;103147.56;;;2.33;100.00
13420;BME280;6781;58.440;15.470;2023-12-29T09:53:12;103133.91;;;2.32;100.00
13420;BME280;6781;58.440;15.470;2023-12-29T09:55:39;103143.25;;;2.39;100.00
13420;BME280;6781;58.440;15.470;2023-12-29T09:58:07;103125.34;;;2.38;100.00
13420;BME280;6781;58.440;15.470;2023-12-29T10:00:36;103117.66;;;2.36;100.00
13420;BME280;6781;58.440;15.470;2023-12-29T10:03:03;103115.09;;;2.38;100.00
13420;BME280;6781;58.440;15.470;2023-12-29T10:05:31;103120.22;;;2.38;100.00
13420;BME280;6781;58.440;15.470;2023-12-29T10:07:58;103101.47;;;2.36;100.00
13420;BME280;6781;58.440;15.470;2023-12-29T10:10:28;103111.66;;;2.43;100.00
13420;BME280;6781;58.440;15.470;2023-12-29T10:12:59;103102.28;;;2.45;100.00
13420;BME280;6781;58.440;15.470;2023-12-29T10:15:29;103101.38;;;2.51;100.00
13420;BME280;6781;58.440;15.470;2023-12-29T10:18:14;103095.41;;;2.50;100.00
13420;BME280;6781;58.440;15.470;2023-12-29T10:21:05;103101.38;;;2.57;100.00
13420;BME280;6781;58.440;15.470;2023-12-29T10:23:50;103103.88;;;2.65;100.00
13420;BME280;6781;58.440;15.470;2023-12-29T10:26:23;103093.66;;;2.61;100.00
13420;BME280;6781;58.440;15.470;2023-12-29T10:28:50;103087.66;;;2.66;100.00
13420;BME280;6781;58.440;15.470;2023-12-29T10:31:17;103076.56;;;2.64;100.00
13420;BME280;6781;58.440;15.470;2023-12-29T10:33:45;103076.50;;;2.73;100.00
13420;BME280;6781;58.440;15.470;2023-12-29T10:36:15;103064.56;;;2.70;100.00
13420;BME280;6781;58.440;15.470;2023-12-29T10:38:42;103056.84;;;2.78;100.00
13420;BME280;6781;58.440;15.470;2023-12-29T10:41:12;103045.75;;;2.74;100.00
13420;BME280;6781;58.440;15.470;2023-12-29T10:43:40;103035.53;;;2.73;100.00
13420;BME280;6781;58.440;15.470;2023-12-29T10:46:07;103030.38;;;2.74;100.00
13420;BME280;6781;58.440;15.470;2023-12-29T10:48:34;103021.81;;;2.80;100.00
13420;BME280;6781;58.440;15.470;2023-12-29T10:51:03;103013.28;;;2.78;100.00
13420;BME280;6781;58.440;15.470;2023-12-29T10:53:30;103005.53;;;2.85;100.00
13420;BME280;6781;58.440;15.470;2023-12-29T10:55:58;103008.09;;;2.87;100.00
13420;BME280;6781;58.440;15.470;2023-12-29T10:58:25;103005.50;;;2.91;100.00
13420;BME280;6781;58.440;15.470;2023-12-29T11:00:52;102991.81;;;2.92;100.00
13420;BME280;6781;58.440;15.470;2023-12-29T11:03:19;102978.16;;;2.90;100.00
13420;BME280;6781;58.440;15.470;2023-12-29T11:05:46;102971.34;;;2.88;100.00
13420;BME280;6781;58.440;15.470;2023-12-29T11:08:18;102959.41;;;2.87;100.00
13420;BME280;6781;58.440;15.470;2023-12-29T11:10:45;102942.34;;;2.84;100.00
13420;BME280;6781;58.440;15.470;2023-12-29T11:13:11;102931.28;;;2.81;100.00
13420;BME280;6781;58.440;15.470;2023-12-29T11:15:40;102909.94;;;2.79;100.00
13420;BME280;6781;58.440;15.470;2023-12-29T11:18:08;102896.34;;;2.69;100.00
13420;BME280;6781;58.440;15.470;2023-12-29T11:20:35;102891.19;;;2.74;100.00
13420;BME280;6781;58.440;15.470;2023-12-29T11:23:02;102875.91;;;2.65;100.00
13420;BME280;6781;58.440;15.470;2023-12-29T11:25:31;102876.72;;;2.70;100.00
13420;BME280;6781;58.440;15.470;2023-12-29T11:27:58;102854.50;;;2.72;100.00
13420;BME280;6781;58.440;15.470;2023-12-29T11:30:25;102846.84;;;2.67;100.00
13420;BME280;6781;58.440;15.470;2023-12-29T11:32:53;102830.59;;;2.70;100.00
13420;BME280;6781;58.440;15.470;2023-12-29T11:35:25;102828.91;;;2.69;100.00
13420;BME280;6781;58.440;15.470;2023-12-29T11:40:44;102832.25;;;2.77;100.00
13420;BME280;6781;58.440;15.470;2023-12-29T11:43:16;102832.22;;;2.80;100.00
13420;BME280;6781;58.440;15.470;2023-12-29T11:45:43;102826.25;;;2.78;100.00
13420;BME280;6781;58.440;15.470;2023-12-29T11:48:10;102827.91;;;2.82;100.00
13420;BME280;6781;58.440;15.470;2023-12-29T11:50:38;102818.63;;;2.72;100.00
13420;BME280;6781;58.440;15.470;2023-12-29T11:53:06;102813.47;;;2.75;100.00
13420;BME280;6781;58.440;15.470;2023-12-29T11:55:34;102815.94;;;2.84;100.00
13420;BME280;6781;58.440;15.470;2023-12-29T11:58:02;102815.06;;;2.85;100.00
13420;BME280;6781;58.440;15.470;2023-12-29T12:00:46;102824.38;;;2.93;100.00
13420;BME280;6781;58.440;15.470;2023-12-29T12:03:14;102818.44;;;2.90;100.00
13420;BME280;6781;58.440;15.470;2023-12-29T12:05:46;102821.81;;;2.92;100.00
13420;BME280;6781;58.440;15.470;2023-12-29T12:08:26;102809.09;;;2.84;100.00
13420;BME280;6781;58.440;15.470;2023-12-29T12:10:53;102796.38;;;2.77;100.00
13420;BME280;6781;58.440;15.470;2023-12-29T12:16:03;102780.97;;;2.80;100.00
13420;BME280;6781;58.440;15.470;2023-12-29T12:18:29;102790.38;;;2.79;100.00
13420;BME280;6781;58.440;15.470;2023-12-29T12:20:57;102789.44;;;2.85;100.00
13420;BME280;6781;58.440;15.470;2023-12-29T12:23:25;102775.84;;;2.80;100.00
13420;BME280;6781;58.440;15.470;2023-12-29T12:25:56;102770.72;;;2.80;100.00
13420;BME280;6781;58.440;15.470;2023-12-29T12:31:17;102780.88;;;2.89;100.00
13420;BME280;6781;58.440;15.470;2023-12-29T12:33:52;102768.91;;;2.88;100.00
13420;BME280;6781;58.440;15.470;2023-12-29T12:36:20;102767.19;;;2.90;100.00
13420;BME280;6781;58.440;15.470;2023-12-29T12:38:50;102758.66;;;2.89;100.00
13420;BME280;6781;58.440;15.470;2023-12-29T12:41:23;102759.47;;;2.91;100.00
13420;BME280;6781;58.440;15.470;2023-12-29T12:43:58;102753.47;;;2.94;100.00
13420;BME280;6781;58.440;15.470;2023-12-29T12:46:41;102743.22;;;2.94;100.00
13420;BME280;6781;58.440;15.470;2023-12-29T12:49:08;102737.22;;;2.95;100.00
13420;BME280;6781;58.440;15.470;2023-12-29T12:51:52;102732.09;;;2.97;100.00
13420;BME280;6781;58.440;15.470;2023-12-29T12:54:41;102744.84;;;3.00;100.00
13420;BME280;6781;58.440;15.470;2023-12-29T12:57:33;102723.59;;;2.91;100.00
13420;BME280;6781;58.440;15.470;2023-12-29T13:00:09;102725.31;;;2.91;100.00
13420;BME280;6781;58.440;15.470;2023-12-29T13:02:37;102705.72;;;2.87;100.00
13420;BME280;6781;58.440;15.470;2023-12-29T13:05:04;102704.06;;;2.83;100.00
13420;BME280;6781;58.440;15.470;2023-12-29T13:07:33;102693.03;;;2.76;100.00
13420;BME280;6781;58.440;15.470;2023-12-29T13:10:00;102675.16;;;2.72;100.00
13420;BME280;6781;58.440;15.470;2023-12-29T13:12:29;102677.72;;;2.73;100.00
13420;BME280;6781;58.440;15.470;2023-12-29T13:15:04;102679.38;;;2.77;100.00